ブカレスト の空港の天気 - METARとTAF

アンリ・コアンダ国際空港(ブカレスト) ( LROP / OTP ) - ルーマニア ブカレスト
飛行場実況気象(Metar)
観測時間04/24 19:00 EEST (04/24 16:00 UTC)
風向・風速東北東 5m/s
視程10km以上
天気現象
なし
気温18℃
湿度49%
気圧1024hPa
METARLROP 241600Z 07010KT CAVOK 18/07 Q1024 NOSIG
過去の天気等 Google飛行場航空写真 Wunderground天気予報

過去48時間のMETAR

飛行場予報(TAF)
発表時間: 4/24 14:00 EEST (4/24 11:00 UTC)
予報対象時間: 24日15時 EEST ~ 25日15時 EEST
風向・風速東北東 6m/s
視程10km以上
なし
25日3時 EEST ~ 25日7時 EEST に一時的に
視程3000m
天気現象もや
TAF LROP 241100Z 2412/2512 07012KT CAVOK
TEMPO 2500/2504 3000 BR